Terminal Aerodrome Forecast
Issued by NWS Duluth, MN

Home | Current Version | Previous Version | Text Only | Print | Product List | Glossary On
Versions: 1 2 3 4 5 6 7 8 9 10 11 12 13 14 15 16 17 18 19 20
000
FTUS43 KDLH 201700
TAFDLH
TAF
KDLH 201737Z 2018/2118 31007KT P6SM OVC025
      TEMPO 2018/2019 OVC015
     FM202000 36009KT P6SM BKN025
     FM210000 03006KT P6SM OVC025
     FM210300 06005KT P6SM OVC015
     FM210900 09006KT P6SM OVC009=

USA.gov is the U.S. government's official web portal to all federal, state and local government web resources and services.